Time;durP1;ratioP1;P1;durP2;ratioP2;P2;SDS_P1;SDS_P2;PMS_P1;PMS_P2;Temp;Humidity;BMP_temperature;BMP_pressure;BME280_temperature;BME280_humidity;BME280_pressure;Samples;Min_cycle;Max_cycle;Signal;HPM_P1;HPM_P2
2022/07/11 00:01:43;;;;;;;7.25;2.38;;;17.30;99.90;;;;;;5074269;28;20028;-85
2022/07/11 00:04:09;;;;;;;8.05;1.90;;;17.30;99.90;;;;;;5072905;28;20040;-85
2022/07/11 00:06:35;;;;;;;8.32;2.15;;;17.30;99.90;;;;;;5072970;28;20028;-85
2022/07/11 00:09:01;;;;;;;8.10;2.20;;;17.30;99.90;;;;;;5089982;28;20111;-85
2022/07/11 00:11:26;;;;;;;8.10;2.45;;;17.30;99.90;;;;;;5089912;28;20044;-85
2022/07/11 00:13:52;;;;;;;8.65;2.40;;;17.30;99.90;;;;;;5072532;28;20043;-85
2022/07/11 00:16:18;;;;;;;8.40;2.25;;;17.30;99.90;;;;;;5073955;28;20039;-85
2022/07/11 00:18:44;;;;;;;8.10;2.22;;;17.30;99.90;;;;;;5090494;28;20035;-85
2022/07/11 00:21:10;;;;;;;6.75;2.05;;;17.30;99.90;;;;;;5073400;28;20044;-85
2022/07/11 00:23:36;;;;;;;9.23;2.45;;;17.20;99.90;;;;;;5089847;28;20452;-85
2022/07/11 00:26:02;;;;;;;8.50;2.70;;;17.20;99.90;;;;;;5071899;28;20040;-85
2022/07/11 00:28:28;;;;;;;7.97;2.17;;;17.20;99.90;;;;;;5073393;28;20035;-85
2022/07/11 00:30:53;;;;;;;8.60;2.33;;;17.20;99.90;;;;;;5089637;28;20032;-85
2022/07/11 00:33:19;;;;;;;7.85;2.55;;;17.30;99.90;;;;;;5089709;28;20082;-85
2022/07/11 00:35:44;;;;;;;6.70;2.17;;;17.20;99.90;;;;;;5073658;28;20036;-85
2022/07/11 00:38:10;;;;;;;9.88;2.50;;;17.20;99.90;;;;;;5089186;28;20047;-85
2022/07/11 00:40:36;;;;;;;7.43;2.45;;;17.20;99.90;;;;;;5089966;28;20040;-85
2022/07/11 00:43:05;;;;;;;7.28;2.28;;;17.20;99.90;;;;;;5088553;28;20906;-84
2022/07/11 00:45:31;;;;;;;7.95;2.70;;;17.20;99.90;;;;;;5089176;28;20616;-85
2022/07/11 00:47:58;;;;;;;7.82;2.50;;;17.20;99.90;;;;;;5093511;28;20063;-85
2022/07/11 00:50:25;;;;;;;11.18;2.83;;;17.20;99.90;;;;;;5073894;28;20055;-84
2022/07/11 00:52:52;;;;;;;10.57;2.47;;;17.20;99.90;;;;;;5074136;28;20548;-84
2022/07/11 00:55:19;;;;;;;7.72;2.63;;;17.20;99.90;;;;;;5089952;28;20051;-84
2022/07/11 00:57:46;;;;;;;8.48;2.60;;;17.20;99.90;;;;;;5090309;28;20549;-85
2022/07/11 01:00:12;;;;;;;6.72;2.50;;;17.20;99.90;;;;;;5089731;28;20527;-85
2022/07/11 01:02:39;;;;;;;10.75;3.05;;;17.10;99.90;;;;;;5073210;28;20100;-84
2022/07/11 01:05:05;;;;;;;8.75;2.70;;;17.10;99.90;;;;;;5089083;28;20036;-85
2022/07/11 01:07:31;;;;;;;9.30;2.90;;;17.10;99.90;;;;;;5071486;28;20173;-85
2022/07/11 01:09:57;;;;;;;8.57;2.80;;;17.10;99.90;;;;;;5072297;28;20397;-85
2022/07/11 01:12:23;;;;;;;12.50;2.95;;;17.10;99.90;;;;;;5088789;28;20040;-85
2022/07/11 01:14:59;;;;;;;7.85;2.70;;;17.10;99.90;;;;;;5072559;28;20036;-85
2022/07/11 01:17:24;;;;;;;8.02;3.17;;;17.10;99.90;;;;;;5090021;28;20051;-85
2022/07/11 01:19:50;;;;;;;9.07;3.20;;;17.10;99.90;;;;;;5071213;28;20028;-85
2022/07/11 01:22:19;;;;;;;9.85;3.05;;;17.10;99.90;;;;;;5089646;28;20044;-85
2022/07/11 01:24:45;;;;;;;10.80;3.30;;;17.10;99.90;;;;;;5088358;28;20114;-85
2022/07/11 01:27:11;;;;;;;11.73;2.83;;;17.00;99.90;;;;;;5071556;28;20465;-85
2022/07/11 01:29:38;;;;;;;9.32;3.95;;;17.00;99.90;;;;;;5071920;28;20051;-85
2022/07/11 01:32:04;;;;;;;8.57;3.80;;;17.00;99.90;;;;;;5087975;28;20044;-85
2022/07/11 01:34:30;;;;;;;8.85;3.80;;;17.00;99.90;;;;;;5089168;28;20036;-85
2022/07/11 01:36:55;;;;;;;8.02;3.55;;;17.00;99.90;;;;;;5089109;28;20032;-85
2022/07/11 01:39:21;;;;;;;8.52;2.97;;;17.00;99.90;;;;;;5088794;28;20074;-85
2022/07/11 01:41:46;;;;;;;9.18;3.80;;;17.00;99.90;;;;;;5073005;28;20071;-85
2022/07/11 01:44:12;;;;;;;8.43;3.40;;;16.90;99.90;;;;;;5088439;28;20554;-85
2022/07/11 01:46:37;;;;;;;8.52;3.65;;;17.00;99.90;;;;;;5088525;28;20048;-85
2022/07/11 01:49:03;;;;;;;8.70;3.42;;;17.00;99.90;;;;;;5088912;28;20400;-84
2022/07/11 01:51:29;;;;;;;9.35;3.60;;;17.00;99.90;;;;;;5089787;28;20413;-85
2022/07/11 01:53:55;;;;;;;7.97;2.67;;;17.00;99.90;;;;;;5071982;28;20628;-85
2022/07/11 01:56:22;;;;;;;9.70;3.60;;;16.90;99.90;;;;;;5088982;28;20633;-85
2022/07/11 01:58:48;;;;;;;9.35;3.70;;;16.90;99.90;;;;;;5089080;28;20040;-85
2022/07/11 02:01:14;;;;;;;11.18;3.72;;;16.90;99.90;;;;;;5089195;28;20090;-85
2022/07/11 02:03:40;;;;;;;10.02;3.20;;;16.90;99.90;;;;;;5088252;28;20036;-85
2022/07/11 02:06:06;;;;;;;7.57;3.50;;;16.90;99.90;;;;;;5088484;28;20074;-85
2022/07/11 02:08:32;;;;;;;8.88;3.20;;;16.90;99.90;;;;;;5087651;28;20047;-85
2022/07/11 02:10:57;;;;;;;8.05;3.25;;;16.90;99.90;;;;;;5071561;28;20036;-85
2022/07/11 02:13:23;;;;;;;9.05;3.33;;;16.90;99.90;;;;;;5087591;28;20130;-86
2022/07/11 02:15:50;;;;;;;7.95;2.33;;;16.90;99.90;;;;;;5072131;28;20028;-85
2022/07/11 02:18:17;;;;;;;9.90;3.10;;;16.80;99.90;;;;;;5072103;28;20428;-85
2022/07/11 02:20:45;;;;;;;9.07;3.15;;;16.80;99.90;;;;;;5088757;28;20142;-85
2022/07/11 02:23:12;;;;;;;8.55;2.97;;;16.80;99.90;;;;;;5088558;28;20036;-85
2022/07/11 02:25:40;;;;;;;6.43;3.00;;;16.80;99.90;;;;;;5071676;28;20647;-85
2022/07/11 02:28:08;;;;;;;7.47;2.90;;;16.80;99.90;;;;;;5086709;28;20044;-84
2022/07/11 02:30:38;;;;;;;7.28;3.22;;;16.80;99.90;;;;;;5071323;28;20043;-85
2022/07/11 02:33:04;;;;;;;6.70;2.90;;;16.80;99.90;;;;;;5088041;28;20082;-85
2022/07/11 02:35:30;;;;;;;6.80;3.30;;;16.80;99.90;;;;;;5071668;28;20036;-85
2022/07/11 02:37:56;;;;;;;7.43;3.53;;;16.80;99.90;;;;;;5089323;28;20115;-85
2022/07/11 02:40:22;;;;;;;7.20;3.70;;;16.80;99.90;;;;;;5086892;28;20181;-85
2022/07/11 02:42:47;;;;;;;8.30;3.90;;;16.80;99.90;;;;;;5072298;28;20036;-85
2022/07/11 02:45:13;;;;;;;9.18;3.97;;;16.80;99.90;;;;;;5070614;28;20047;-85
2022/07/11 02:47:39;;;;;;;7.20;3.92;;;16.80;99.90;;;;;;5086858;28;20047;-85
2022/07/11 02:50:07;;;;;;;8.75;4.20;;;16.80;99.90;;;;;;5070854;28;20040;-85
2022/07/11 02:52:33;;;;;;;9.00;4.40;;;16.80;99.90;;;;;;5071249;28;20040;-85
2022/07/11 02:54:58;;;;;;;8.40;3.55;;;16.70;99.90;;;;;;5088158;28;20471;-85
2022/07/11 02:57:24;;;;;;;9.25;4.63;;;16.70;99.90;;;;;;5090404;28;20117;-85
2022/07/11 02:59:50;;;;;;;9.77;4.45;;;16.70;99.90;;;;;;5090006;28;20032;-85
2022/07/11 03:02:15;;;;;;;10.40;6.03;;;16.70;99.90;;;;;;5092064;28;20036;-85
2022/07/11 03:04:41;;;;;;;10.77;5.05;;;16.70;99.90;;;;;;5091826;28;20085;-85
2022/07/11 03:07:07;;;;;;;9.38;4.65;;;16.70;99.90;;;;;;5090313;28;20047;-86
2022/07/11 03:09:33;;;;;;;10.95;5.60;;;16.70;99.90;;;;;;5091156;28;20401;-85
2022/07/11 03:11:58;;;;;;;8.82;5.10;;;16.70;99.90;;;;;;5091449;28;20114;-85
2022/07/11 03:14:24;;;;;;;10.98;5.30;;;16.70;99.90;;;;;;5090956;28;20036;-85
2022/07/11 03:16:49;;;;;;;9.82;5.35;;;16.70;99.90;;;;;;5092462;28;20040;-85
2022/07/11 03:19:15;;;;;;;9.52;5.30;;;16.70;99.90;;;;;;5091289;28;20447;-86
2022/07/11 03:21:41;;;;;;;10.00;5.47;;;16.70;99.90;;;;;;5075070;28;20048;-85
2022/07/11 03:24:06;;;;;;;11.80;5.68;;;16.70;99.90;;;;;;5074950;28;20032;-85
2022/07/11 03:26:32;;;;;;;10.98;5.60;;;16.70;99.90;;;;;;5090732;28;20169;-85
2022/07/11 03:28:57;;;;;;;9.40;5.28;;;16.70;99.90;;;;;;5090336;28;20069;-85
2022/07/11 03:31:23;;;;;;;8.57;3.70;;;16.70;99.90;;;;;;5090656;28;20055;-85
2022/07/11 03:33:48;;;;;;;10.60;5.43;;;16.60;99.90;;;;;;5091377;28;20129;-85
2022/07/11 03:36:14;;;;;;;9.35;5.13;;;16.60;99.90;;;;;;5090984;28;20512;-85
2022/07/11 03:38:39;;;;;;;9.02;5.10;;;16.70;99.90;;;;;;5092099;28;20495;-85
2022/07/11 03:41:05;;;;;;;8.95;5.28;;;16.70;99.90;;;;;;5091395;28;20035;-85
2022/07/11 03:43:31;;;;;;;10.55;5.97;;;16.70;99.90;;;;;;5090504;28;20402;-86
2022/07/11 03:45:57;;;;;;;9.50;4.95;;;16.60;99.90;;;;;;5090870;28;20743;-85
2022/07/11 03:48:23;;;;;;;10.25;3.95;;;16.60;99.90;;;;;;5072998;28;20032;-85
2022/07/11 03:50:49;;;;;;;9.25;4.80;;;16.60;99.90;;;;;;5073582;28;20691;-85
2022/07/11 03:53:15;;;;;;;9.55;4.72;;;16.60;99.90;;;;;;5090725;28;20036;-85
2022/07/11 03:55:40;;;;;;;9.35;4.88;;;16.60;99.90;;;;;;5090587;28;20043;-85
2022/07/11 03:58:06;;;;;;;9.32;5.07;;;16.60;99.90;;;;;;5091670;28;20163;-86
2022/07/11 04:00:32;;;;;;;9.82;5.70;;;16.70;99.90;;;;;;5073060;28;20044;-86
2022/07/11 04:02:59;;;;;;;9.48;4.95;;;16.60;99.90;;;;;;5090991;28;20528;-85
2022/07/11 04:05:25;;;;;;;10.13;5.32;;;16.70;99.90;;;;;;5090742;28;20444;-86
2022/07/11 04:07:51;;;;;;;10.82;4.20;;;16.70;99.90;;;;;;5072882;28;20040;-86
2022/07/11 04:10:17;;;;;;;11.05;5.20;;;16.60;99.90;;;;;;5072574;28;20493;-86
2022/07/11 04:12:43;;;;;;;9.35;5.03;;;16.60;99.90;;;;;;5090379;28;20043;-85
2022/07/11 04:15:10;;;;;;;8.98;3.88;;;16.60;99.90;;;;;;5089824;28;20161;-86
2022/07/11 04:17:37;;;;;;;9.35;4.57;;;16.60;99.90;;;;;;5090786;28;20043;-86
2022/07/11 04:20:03;;;;;;;8.30;3.25;;;16.60;99.90;;;;;;5091097;28;20044;-86
2022/07/11 04:22:29;;;;;;;9.85;4.65;;;16.60;99.90;;;;;;5073202;28;20497;-86
2022/07/11 04:24:55;;;;;;;10.50;4.57;;;16.60;99.90;;;;;;5090878;28;20051;-86
2022/07/11 04:27:20;;;;;;;9.68;4.70;;;16.60;99.90;;;;;;5088805;28;20039;-85
2022/07/11 04:29:46;;;;;;;10.43;4.68;;;16.70;99.90;;;;;;5072015;28;20697;-85
2022/07/11 04:32:12;;;;;;;11.48;4.70;;;16.70;99.90;;;;;;5089492;28;20036;-85
2022/07/11 04:34:37;;;;;;;9.07;4.80;;;16.70;99.90;;;;;;5072191;28;20115;-85
2022/07/11 04:37:04;;;;;;;7.30;4.20;;;16.70;99.90;;;;;;5090838;28;20070;-85
2022/07/11 04:39:32;;;;;;;9.35;4.05;;;16.70;99.90;;;;;;5089909;28;20040;-85
2022/07/11 04:41:57;;;;;;;9.32;3.25;;;16.70;99.90;;;;;;5072721;28;20051;-85
2022/07/11 04:44:23;;;;;;;10.30;4.20;;;16.70;99.90;;;;;;5090032;28;20039;-85
2022/07/11 04:46:49;;;;;;;9.15;4.43;;;16.70;99.90;;;;;;5072637;28;20131;-85
2022/07/11 04:49:14;;;;;;;8.00;2.72;;;16.80;99.90;;;;;;5071471;28;20040;-85
2022/07/11 04:51:40;;;;;;;8.45;3.60;;;16.70;99.90;;;;;;5072946;28;20051;-85
2022/07/11 04:54:06;;;;;;;7.05;3.13;;;16.70;99.90;;;;;;5088836;28;20093;-85
2022/07/11 04:56:32;;;;;;;8.85;3.63;;;16.80;99.90;;;;;;5090121;28;20048;-85
2022/07/11 04:58:57;;;;;;;9.40;3.13;;;16.80;99.90;;;;;;5090000;28;20054;-85
2022/07/11 05:01:23;;;;;;;6.55;2.75;;;16.80;99.90;;;;;;5089247;28;20064;-85
2022/07/11 05:03:49;;;;;;;8.52;3.70;;;16.80;99.90;;;;;;5089945;28;20043;-85
2022/07/11 05:06:14;;;;;;;7.20;3.80;;;16.80;99.90;;;;;;5089302;28;20081;-85
2022/07/11 05:08:40;;;;;;;9.88;4.00;;;16.80;99.90;;;;;;5089191;28;20036;-85
2022/07/11 05:11:05;;;;;;;8.07;3.80;;;16.80;99.90;;;;;;5088375;28;20516;-85
2022/07/11 05:13:32;;;;;;;10.55;4.18;;;16.90;99.90;;;;;;5071992;28;20040;-85
2022/07/11 05:15:57;;;;;;;8.85;3.72;;;16.90;99.90;;;;;;5072244;28;20582;-85
2022/07/11 05:18:23;;;;;;;9.30;4.07;;;16.90;99.90;;;;;;5089812;28;20040;-85
2022/07/11 05:20:49;;;;;;;7.93;4.07;;;16.90;99.90;;;;;;5072449;28;20085;-85
2022/07/11 05:23:15;;;;;;;7.30;3.72;;;17.00;99.90;;;;;;5071835;28;20055;-85
2022/07/11 05:25:41;;;;;;;8.60;3.72;;;17.00;99.90;;;;;;5089455;28;20047;-85
2022/07/11 05:28:06;;;;;;;8.65;3.78;;;17.00;99.90;;;;;;5088242;28;20051;-85
2022/07/11 05:30:32;;;;;;;9.20;4.07;;;17.00;99.90;;;;;;5071004;28;20052;-85
2022/07/11 05:32:57;;;;;;;7.68;3.80;;;17.00;99.90;;;;;;5089222;28;20063;-85
2022/07/11 05:35:25;;;;;;;8.48;3.47;;;17.00;99.90;;;;;;5071645;28;20039;-85
2022/07/11 05:37:50;;;;;;;8.60;3.60;;;17.00;99.90;;;;;;5072950;28;20503;-85
2022/07/11 05:40:16;;;;;;;7.80;3.50;;;17.00;99.90;;;;;;5089086;28;20052;-85
2022/07/11 05:42:41;;;;;;;7.38;3.20;;;17.10;99.90;;;;;;5088755;28;20044;-85
2022/07/11 05:45:08;;;;;;;7.05;3.08;;;17.10;99.90;;;;;;5089681;28;20051;-85
2022/07/11 05:47:33;;;;;;;7.55;2.72;;;17.00;99.90;;;;;;5071296;28;20382;-85
2022/07/11 05:49:59;;;;;;;7.55;3.22;;;17.00;99.90;;;;;;5071021;28;20497;-85
2022/07/11 05:52:24;;;;;;;7.50;3.40;;;17.10;99.90;;;;;;5071655;28;20115;-85
2022/07/11 05:54:50;;;;;;;6.50;2.80;;;17.10;99.90;;;;;;5088514;28;20044;-85
2022/07/11 05:57:15;;;;;;;4.97;2.10;;;17.20;99.90;;;;;;5106145;28;20497;-85
2022/07/11 05:59:41;;;;;;;5.35;1.98;;;17.20;99.90;;;;;;5088024;28;20450;-85
2022/07/11 06:02:07;;;;;;;6.20;1.83;;;17.20;99.90;;;;;;5072076;28;20051;-85
2022/07/11 06:04:33;;;;;;;5.00;1.98;;;17.20;99.90;;;;;;5072326;28;20050;-85
2022/07/11 06:06:59;;;;;;;5.35;1.20;;;17.30;99.90;;;;;;5088271;28;20492;-85
2022/07/11 06:09:25;;;;;;;3.67;1.75;;;17.30;99.90;;;;;;5070790;28;20408;-85
2022/07/11 06:11:51;;;;;;;5.45;1.60;;;17.30;99.90;;;;;;5071173;28;20131;-85
2022/07/11 06:14:17;;;;;;;6.10;1.88;;;17.40;99.90;;;;;;5070723;28;20040;-85
2022/07/11 06:16:43;;;;;;;5.53;1.50;;;17.40;99.90;;;;;;5072072;28;20040;-85
2022/07/11 06:19:09;;;;;;;5.90;1.95;;;17.50;99.90;;;;;;5071636;28;20039;-85
2022/07/11 06:21:35;;;;;;;3.65;1.25;;;17.60;99.90;;;;;;5088796;28;20036;-85
2022/07/11 06:24:00;;;;;;;3.70;1.55;;;17.60;99.90;;;;;;5088974;28;20036;-85
2022/07/11 06:26:26;;;;;;;4.38;1.52;;;17.60;99.90;;;;;;5071802;28;20040;-85
2022/07/11 06:28:52;;;;;;;3.45;1.30;;;17.60;99.90;;;;;;5087982;28;20039;-85
2022/07/11 06:31:17;;;;;;;3.17;1.30;;;17.60;99.90;;;;;;5070583;28;20374;-85
2022/07/11 06:33:43;;;;;;;2.83;1.30;;;17.70;99.90;;;;;;5071741;28;20589;-84
2022/07/11 06:36:08;;;;;;;4.05;1.33;;;17.60;99.90;;;;;;5091841;28;20035;-85
2022/07/11 06:38:34;;;;;;;4.85;1.60;;;17.60;99.90;;;;;;5092491;28;20490;-85
2022/07/11 06:41:00;;;;;;;4.43;1.52;;;17.60;99.90;;;;;;5092198;28;20036;-86
2022/07/11 06:43:27;;;;;;;6.05;1.55;;;17.70;99.90;;;;;;5091685;28;20086;-85
2022/07/11 06:45:53;;;;;;;5.32;1.60;;;17.70;99.90;;;;;;5093083;28;20039;-85
2022/07/11 06:48:20;;;;;;;3.47;1.27;;;17.70;99.90;;;;;;5074576;28;20031;-85
2022/07/11 06:50:46;;;;;;;3.22;1.30;;;17.80;99.90;;;;;;5074406;28;20067;-85
2022/07/11 06:53:11;;;;;;;6.22;1.42;;;17.90;99.90;;;;;;5091737;28;20608;-85
2022/07/11 06:55:37;;;;;;;3.42;1.35;;;17.90;99.90;;;;;;5074307;28;20044;-85
2022/07/11 06:58:03;;;;;;;3.38;1.13;;;17.90;99.90;;;;;;5066035;28;20028;-85
2022/07/11 07:00:28;;;;;;;4.03;1.10;;;17.90;99.90;;;;;;5109153;28;20044;-85
2022/07/11 07:02:57;;;;;;;3.67;1.00;;;18.00;99.90;;;;;;5074921;28;20036;-85
2022/07/11 07:05:26;;;;;;;2.80;0.88;;;18.10;99.90;;;;;;5092096;28;20124;-85
2022/07/11 07:07:52;;;;;;;3.30;0.93;;;18.10;99.90;;;;;;5091300;28;20040;-85
2022/07/11 07:10:19;;;;;;;0.90;0.75;;;18.10;99.90;;;;;;5090845;28;20044;-85
2022/07/11 07:12:45;;;;;;;2.72;0.85;;;18.10;99.90;;;;;;5091023;28;20405;-85
2022/07/11 07:15:14;;;;;;;3.05;1.05;;;18.10;99.90;;;;;;5090320;28;20051;-85
2022/07/11 07:17:39;;;;;;;2.88;1.00;;;18.10;99.90;;;;;;5091452;28;20040;-85
2022/07/11 07:20:08;;;;;;;4.53;1.10;;;18.10;99.90;;;;;;5074248;28;20096;-85
2022/07/11 07:22:34;;;;;;;4.30;0.90;;;18.10;99.90;;;;;;5074635;28;20566;-85
2022/07/11 07:25:00;;;;;;;3.33;0.93;;;18.10;99.90;;;;;;5091684;28;20039;-85
2022/07/11 07:27:26;;;;;;;4.40;1.00;;;18.20;99.90;;;;;;5091352;28;20044;-85
2022/07/11 07:29:52;;;;;;;2.40;1.00;;;18.20;99.90;;;;;;5073521;28;20044;-85
2022/07/11 07:32:18;;;;;;;4.28;1.13;;;18.20;99.90;;;;;;5090216;28;20036;-86
2022/07/11 07:34:43;;;;;;;4.50;1.10;;;18.30;99.90;;;;;;5091558;28;20047;-85
2022/07/11 07:37:09;;;;;;;1.70;0.88;;;18.30;99.90;;;;;;5090366;28;20119;-85
2022/07/11 07:39:35;;;;;;;4.57;1.00;;;18.30;99.90;;;;;;5074983;28;20036;-85
2022/07/11 07:42:00;;;;;;;3.58;1.00;;;18.40;99.90;;;;;;5091492;28;20632;-85
2022/07/11 07:44:26;;;;;;;2.63;0.93;;;18.40;99.90;;;;;;5091064;28;20105;-85
2022/07/11 07:46:52;;;;;;;4.40;1.20;;;18.40;99.90;;;;;;5091217;28;20482;-85
2022/07/11 07:49:18;;;;;;;2.63;1.10;;;18.30;99.90;;;;;;5088694;28;20028;-82
2022/07/11 07:51:43;;;;;;;3.13;1.10;;;18.30;99.90;;;;;;5079800;28;20036;-84
2022/07/11 07:54:09;;;;;;;2.80;0.90;;;18.40;99.90;;;;;;5091692;28;20077;-85
2022/07/11 07:56:34;;;;;;;4.10;1.10;;;18.40;99.90;;;;;;5087678;28;20536;-85
2022/07/11 07:59:00;;;;;;;2.78;1.05;;;18.50;99.90;;;;;;5103293;28;20033;-84
2022/07/11 08:01:34;;;;;;;2.58;0.85;;;18.60;99.90;;;;;;5105210;28;20545;-84
2022/07/11 08:04:01;;;;;;;3.03;1.10;;;18.70;99.90;;;;;;5076841;28;20067;-84
2022/07/11 08:06:27;;;;;;;2.55;0.90;;;18.80;99.90;;;;;;5066120;28;20044;-84
2022/07/11 08:08:52;;;;;;;2.25;0.75;;;18.80;99.90;;;;;;5074277;28;20051;-84
2022/07/11 08:11:18;;;;;;;2.78;1.00;;;18.90;99.90;;;;;;5073486;28;20040;-84
2022/07/11 08:13:44;;;;;;;4.75;0.82;;;18.90;99.90;;;;;;5090810;28;20074;-85
2022/07/11 08:16:09;;;;;;;3.58;0.80;;;18.90;99.90;;;;;;5089696;28;20035;-85
2022/07/11 08:18:35;;;;;;;4.15;1.30;;;19.00;99.90;;;;;;5073684;28;20036;-86
2022/07/11 08:21:02;;;;;;;3.08;0.90;;;19.00;99.90;;;;;;5073704;28;20047;-85
2022/07/11 08:23:27;;;;;;;3.85;1.10;;;19.00;99.90;;;;;;5084626;28;20054;-86
2022/07/11 08:25:53;;;;;;;1.98;0.70;;;19.10;99.90;;;;;;5087707;28;20039;-86
2022/07/11 08:28:19;;;;;;;2.25;0.70;;;19.20;99.90;;;;;;5062873;28;20071;-86
2022/07/11 08:30:45;;;;;;;2.47;0.70;;;19.20;99.90;;;;;;5097217;28;20032;-85
2022/07/11 08:33:11;;;;;;;3.28;0.73;;;19.20;99.90;;;;;;5095056;28;20041;-86
2022/07/11 08:35:37;;;;;;;6.28;2.15;;;19.30;99.90;;;;;;5065674;28;20075;-86
2022/07/11 08:38:03;;;;;;;5.38;2.10;;;19.40;99.90;;;;;;5098231;28;20064;-86
2022/07/11 08:40:28;;;;;;;5.18;2.10;;;19.50;99.90;;;;;;5079730;28;20043;-86
2022/07/11 08:42:57;;;;;;;4.07;1.58;;;19.50;99.90;;;;;;5082794;28;20032;-86
2022/07/11 08:45:30;;;;;;;3.05;1.10;;;19.50;99.90;;;;;;5063070;28;20395;-85
2022/07/11 08:47:58;;;;;;;2.85;0.68;;;19.50;99.90;;;;;;5095315;28;20113;-85
2022/07/11 08:50:26;;;;;;;0.98;0.50;;;19.50;99.90;;;;;;5062739;28;20033;-86
2022/07/11 08:52:58;;;;;;;2.08;0.77;;;19.40;99.90;;;;;;5079103;28;20654;-85
2022/07/11 08:55:24;;;;;;;2.22;0.63;;;19.40;99.90;;;;;;5099068;28;20044;-85
2022/07/11 08:57:50;;;;;;;2.25;0.70;;;19.40;99.90;;;;;;5072170;28;20054;-86
2022/07/11 09:00:16;;;;;;;3.35;1.00;;;19.40;99.90;;;;;;5072917;28;20490;-86
2022/07/11 09:02:43;;;;;;;1.95;0.60;;;19.50;99.90;;;;;;5067720;28;20032;-86
2022/07/11 09:05:09;;;;;;;2.95;0.60;;;19.50;99.90;;;;;;5088978;28;20036;-86
2022/07/11 09:07:43;;;;;;;1.60;0.75;;;19.70;99.90;;;;;;5089935;28;20047;-86
2022/07/11 09:10:09;;;;;;;1.00;0.60;;;19.70;99.90;;;;;;5078685;28;20093;-86
2022/07/11 09:12:34;;;;;;;1.55;0.50;;;19.70;99.90;;;;;;5079951;28;20487;-86
2022/07/11 09:15:00;;;;;;;2.60;1.15;;;19.80;99.90;;;;;;5085049;28;20032;-86
2022/07/11 09:17:32;;;;;;;3.90;1.00;;;20.00;99.90;;;;;;5071274;28;20067;-86
2022/07/11 09:19:58;;;;;;;2.15;1.08;;;20.10;99.90;;;;;;5090092;28;20171;-85
2022/07/11 09:25:23;;;;;;;3.83;0.90;;;20.00;99.90;;;;;;5089186;28;20063;-86
2022/07/11 09:27:56;;;;;;;3.43;1.00;;;20.00;99.90;;;;;;5089718;28;20046;-86
2022/07/11 09:30:45;;;;;;;3.45;0.95;;;19.90;99.90;;;;;;5071009;28;20052;-86
2022/07/11 09:33:12;;;;;;;2.30;0.70;;;19.90;99.90;;;;;;5071692;28;20036;-86
2022/07/11 09:35:41;;;;;;;2.70;0.90;;;19.80;99.90;;;;;;5088644;28;20035;-85
2022/07/11 09:38:12;;;;;;;3.22;0.70;;;19.80;99.90;;;;;;5088679;28;20032;-86
2022/07/11 09:40:42;;;;;;;2.72;0.70;;;19.70;99.90;;;;;;5071981;28;20054;-85
2022/07/11 09:43:07;;;;;;;1.98;0.60;;;19.70;99.90;;;;;;5070244;28;20036;-84
2022/07/11 09:45:34;;;;;;;1.10;0.73;;;19.70;99.90;;;;;;5087796;28;20039;-85
2022/07/11 09:48:08;;;;;;;2.13;0.70;;;19.80;99.90;;;;;;5087470;28;20036;-86
2022/07/11 09:50:34;;;;;;;1.77;0.70;;;19.80;99.90;;;;;;5086209;28;20505;-86
2022/07/11 09:53:12;;;;;;;1.08;0.70;;;19.80;99.90;;;;;;5086973;28;20035;-86
2022/07/11 09:55:40;;;;;;;1.50;0.88;;;19.90;99.90;;;;;;5087985;28;20090;-85
2022/07/11 09:58:10;;;;;;;3.30;1.17;;;19.90;99.90;;;;;;5071544;28;20040;-86
2022/07/11 10:00:38;;;;;;;1.42;0.70;;;19.90;99.90;;;;;;5088913;28;20105;-86
2022/07/11 10:03:05;;;;;;;2.05;0.50;;;20.00;99.90;;;;;;5089132;28;20110;-86
2022/07/11 10:05:31;;;;;;;1.42;0.50;;;20.10;99.90;;;;;;5072653;28;20477;-86
2022/07/11 10:07:58;;;;;;;0.77;0.40;;;20.20;99.90;;;;;;5088667;28;20032;-86
2022/07/11 10:10:24;;;;;;;2.28;0.55;;;20.20;99.90;;;;;;5091555;28;20050;-85
2022/07/11 10:12:51;;;;;;;0.55;0.45;;;20.30;99.90;;;;;;5092116;28;20032;-86
2022/07/11 10:15:22;;;;;;;0.98;0.50;;;20.40;99.90;;;;;;5091562;28;20512;-86
2022/07/11 10:18:03;;;;;;;0.90;0.50;;;20.50;99.90;;;;;;5092332;28;20036;-86
2022/07/11 10:20:42;;;;;;;1.40;0.40;;;20.50;99.90;;;;;;5075925;28;20052;-86
2022/07/11 10:23:20;;;;;;;1.77;0.60;;;20.50;99.90;;;;;;5083400;28;20044;-86
2022/07/11 10:25:53;;;;;;;0.57;0.47;;;20.50;99.90;;;;;;5085804;28;20032;-86
2022/07/11 10:28:51;;;;;;;1.23;0.60;;;20.50;99.90;;;;;;5098275;28;20386;-85
2022/07/11 10:31:23;;;;;;;0.93;0.40;;;20.60;99.90;;;;;;5083639;28;20059;-86
2022/07/11 10:34:05;;;;;;;0.50;0.40;;;20.50;99.90;;;;;;5092410;28;20562;-85
2022/07/11 10:36:33;;;;;;;2.25;0.50;;;20.50;99.90;;;;;;5074915;28;20043;-85
2022/07/11 10:39:32;;;;;;;2.20;0.65;;;20.50;99.90;;;;;;5075143;28;20040;-86
2022/07/11 10:42:00;;;;;;;4.88;1.58;;;20.50;99.90;;;;;;5023882;28;20072;-86
2022/07/11 10:44:27;;;;;;;7.22;2.40;;;20.50;99.90;;;;;;5082926;28;20032;-85
2022/07/11 10:46:53;;;;;;;5.15;1.98;;;20.50;99.90;;;;;;5081522;28;20055;-86
2022/07/11 10:49:28;;;;;;;4.45;1.48;;;20.60;99.90;;;;;;5082796;28;20459;-85
2022/07/11 10:52:06;;;;;;;4.32;1.73;;;20.60;99.90;;;;;;5080609;28;20094;-85
2022/07/11 10:55:03;;;;;;;2.45;0.93;;;20.70;99.90;;;;;;5090932;28;20569;-85
2022/07/11 10:57:41;;;;;;;6.10;3.00;;;20.70;99.90;;;;;;5074305;28;20126;-85
2022/07/11 11:00:11;;;;;;;8.07;3.63;;;20.80;99.90;;;;;;5091433;28;20603;-86
2022/07/11 11:03:04;;;;;;;3.70;1.30;;;20.90;99.90;;;;;;5075796;28;20040;-86
2022/07/11 11:05:54;;;;;;;3.08;0.90;;;21.00;99.90;;;;;;5092804;28;20588;-86
2022/07/11 11:08:32;;;;;;;1.75;0.50;;;21.10;99.90;;;;;;5092407;28;20040;-86
2022/07/11 11:10:59;;;;;;;1.33;0.52;;;21.20;99.90;;;;;;5073745;28;20036;-86
2022/07/11 11:13:25;;;;;;;1.80;0.52;;;21.30;99.90;;;;;;5073937;28;20033;-86
2022/07/11 11:15:54;;;;;;;2.92;0.80;;;21.30;99.90;;;;;;5059480;28;20072;-86
2022/07/11 11:18:25;;;;;;;2.85;0.70;;;21.30;99.90;;;;;;5085649;28;20029;-86
2022/07/11 11:21:02;;;;;;;2.35;0.60;;;21.30;99.90;;;;;;5072840;28;20044;-85
2022/07/11 11:23:30;;;;;;;1.75;0.60;;;21.30;99.90;;;;;;5108710;28;20086;-85
2022/07/11 11:26:19;;;;;;;2.47;0.80;;;21.20;99.90;;;;;;5091631;28;20040;-85
2022/07/11 11:29:11;;;;;;;1.15;0.60;;;21.20;99.90;;;;;;5091838;28;20040;-86
2022/07/11 11:31:37;;;;;;;2.67;0.80;;;21.20;99.90;;;;;;5085608;28;20126;-86
2022/07/11 11:34:04;;;;;;;1.15;0.70;;;21.20;99.90;;;;;;5090734;28;20127;-86
2022/07/11 11:36:30;;;;;;;2.47;0.65;;;21.20;99.90;;;;;;5090470;28;20043;-86
2022/07/11 11:38:57;;;;;;;2.83;0.73;;;21.20;99.90;;;;;;5074132;28;20419;-86
2022/07/11 11:41:28;;;;;;;1.20;0.65;;;21.30;99.90;;;;;;5088743;28;20050;-86
2022/07/11 11:43:56;;;;;;;1.77;0.60;;;21.30;99.90;;;;;;5082603;28;20036;-86
2022/07/11 11:46:30;;;;;;;1.98;0.70;;;21.40;99.90;;;;;;5108094;28;20036;-86
2022/07/11 11:49:00;;;;;;;2.08;0.70;;;21.50;99.90;;;;;;5073930;28;20036;-86
2022/07/11 11:51:31;;;;;;;1.30;0.55;;;21.60;99.90;;;;;;5072004;28;20097;-86
2022/07/11 11:53:59;;;;;;;2.63;0.73;;;21.70;99.90;;;;;;5090194;28;20067;-86
2022/07/11 11:56:34;;;;;;;1.13;0.57;;;21.60;99.90;;;;;;5089054;28;20047;-86
2022/07/11 11:59:00;;;;;;;2.00;0.55;;;21.70;99.90;;;;;;5089235;28;20040;-86
2022/07/11 12:01:28;;;;;;;1.10;0.60;;;21.70;99.90;;;;;;5073606;28;20068;-86
2022/07/11 12:03:58;;;;;;;2.88;0.68;;;21.70;99.90;;;;;;5091439;28;20044;-86
2022/07/11 12:06:26;;;;;;;2.53;0.63;;;21.70;99.90;;;;;;5073527;28;20040;-86
2022/07/11 12:09:07;;;;;;;3.88;0.70;;;21.60;99.90;;;;;;5091533;28;20048;-86
2022/07/11 12:11:33;;;;;;;2.25;0.60;;;21.60;99.90;;;;;;5072211;28;20044;-86
2022/07/11 12:14:09;;;;;;;5.13;0.93;;;21.60;99.90;;;;;;5072852;28;20093;-86
2022/07/11 12:16:41;;;;;;;2.65;0.70;;;21.70;99.90;;;;;;5090299;28;20060;-86
2022/07/11 12:19:09;;;;;;;3.70;0.65;;;21.70;99.90;;;;;;5068264;28;20424;-86
2022/07/11 12:21:36;;;;;;;3.13;0.60;;;21.70;99.90;;;;;;5054409;28;20397;-86
2022/07/11 12:24:05;;;;;;;1.13;0.50;;;21.70;99.90;;;;;;5074103;28;20047;-86
2022/07/11 12:26:34;;;;;;;2.50;0.80;;;21.80;99.90;;;;;;5090274;28;20047;-86
2022/07/11 12:29:11;;;;;;;1.20;0.50;;;21.80;99.90;;;;;;5073892;28;20123;-86
2022/07/11 12:31:59;;;;;;;3.38;0.80;;;21.80;99.90;;;;;;5072376;28;20051;-86
2022/07/11 12:34:40;;;;;;;2.15;0.50;;;21.90;99.90;;;;;;5061890;28;20106;-86
2022/07/11 12:37:08;;;;;;;1.23;0.60;;;21.90;99.90;;;;;;5064423;28;20405;-86
2022/07/11 12:39:40;;;;;;;0.93;0.50;;;21.90;99.90;;;;;;5077321;28;20065;-86
2022/07/11 12:42:28;;;;;;;2.40;0.63;;;21.90;99.90;;;;;;5086183;28;20044;-86
2022/07/11 12:45:07;;;;;;;1.80;0.55;;;22.00;99.90;;;;;;5103390;28;20130;-86
2022/07/11 12:47:34;;;;;;;0.73;0.50;;;21.90;99.90;;;;;;5107467;28;20090;-86
2022/07/11 12:50:14;;;;;;;2.83;0.60;;;22.00;99.90;;;;;;5106386;28;20047;-86
2022/07/11 12:52:41;;;;;;;1.48;0.60;;;22.00;99.90;;;;;;5089033;28;20074;-86